Time;durP1;ratioP1;P1;durP2;ratioP2;P2;SDS_P1;SDS_P2;PMS_P1;PMS_P2;Temp;Humidity;BMP_temperature;BMP_pressure;BME280_temperature;BME280_humidity;BME280_pressure;Samples;Min_cycle;Max_cycle;Signal;HPM_P1;HPM_P2
2023/04/19 00:01:41;;;;;;;19.30;11.10;;;;;;;-128.00;-1.00;-1.00;18855;294;7504652;-34
2023/04/19 00:04:07;;;;;;;29.00;14.30;;;;;;;-128.00;-1.00;-1.00;18867;294;7504283;-33
2023/04/19 00:06:34;;;;;;;25.00;13.00;;;;;;;-128.00;-1.00;-1.00;18917;294;7504611;-34
2023/04/19 00:08:59;;;;;;;20.90;11.20;;;;;;;-128.00;-1.00;-1.00;18469;294;7505811;-34
2023/04/19 00:11:25;;;;;;;18.40;11.60;;;;;;;-128.00;-1.00;-1.00;18869;294;7504721;-35
2023/04/19 00:13:52;;;;;;;20.60;10.70;;;;;;;-128.00;-1.00;-1.00;18870;288;7504397;-35
2023/04/19 00:16:18;;;;;;;20.00;12.20;;;;;;;-128.00;-1.00;-1.00;18928;294;7505203;-34
2023/04/19 00:18:45;;;;;;;18.70;12.30;;;;;;;-128.00;-1.00;-1.00;18888;294;7504594;-32
2023/04/19 00:21:11;;;;;;;19.10;10.40;;;;;;;-128.00;-1.00;-1.00;18485;294;7505227;-34
2023/04/19 00:23:37;;;;;;;22.70;13.50;;;;;;;-128.00;-1.00;-1.00;18874;318;7505437;-30
2023/04/19 00:26:03;;;;;;;22.10;11.60;;;;;;;-128.00;-1.00;-1.00;18891;294;7504673;-30
2023/04/19 00:28:30;;;;;;;19.30;10.30;;;;;;;-128.00;-1.00;-1.00;18908;298;7504539;-32
2023/04/19 00:30:56;;;;;;;17.60;10.80;;;;;;;-128.00;-1.00;-1.00;18899;347;7505958;-34
2023/04/19 00:33:23;;;;;;;25.00;12.00;;;;;;;-128.00;-1.00;-1.00;18884;294;7504523;-34
2023/04/19 00:35:49;;;;;;;21.40;12.90;;;;;;;-128.00;-1.00;-1.00;18915;294;7504700;-34
2023/04/19 00:38:15;;;;;;;17.90;12.00;;;;;;;-128.00;-1.00;-1.00;18887;288;7504349;-31
2023/04/19 00:40:41;;;;;;;19.20;10.70;;;;;;;-128.00;-1.00;-1.00;18874;307;7505169;-30
2023/04/19 00:43:07;;;;;;;24.50;13.30;;;;;;;-128.00;-1.00;-1.00;18870;294;7504740;-31
2023/04/19 00:45:33;;;;;;;21.70;11.70;;;;;;;-128.00;-1.00;-1.00;18857;295;7504203;-34
2023/04/19 00:48:00;;;;;;;19.00;11.20;;;;;;;-128.00;-1.00;-1.00;18912;318;7505039;-32
2023/04/19 00:50:26;;;;;;;19.80;11.10;;;;;;;-128.00;-1.00;-1.00;18851;346;7504422;-31
2023/04/19 00:52:53;;;;;;;19.60;11.20;;;;;;;-128.00;-1.00;-1.00;18890;296;7505020;-34
2023/04/19 00:55:19;;;;;;;19.30;11.50;;;;;;;-128.00;-1.00;-1.00;18893;294;7504135;-31
2023/04/19 00:57:45;;;;;;;21.30;12.20;;;;;;;-128.00;-1.00;-1.00;18872;294;7505817;-32
2023/04/19 01:00:12;;;;;;;18.60;11.10;;;;;;;-128.00;-1.00;-1.00;18880;294;7504297;-35
2023/04/19 01:02:37;;;;;;;15.90;9.60;;;;;;;-128.00;-1.00;-1.00;18483;347;7504882;-35
2023/04/19 01:05:04;;;;;;;20.70;13.00;;;;;;;-128.00;-1.00;-1.00;18877;294;7504490;-34
2023/04/19 01:07:30;;;;;;;18.50;11.80;;;;;;;-128.00;-1.00;-1.00;18478;294;7506299;-31
2023/04/19 01:09:56;;;;;;;19.00;11.80;;;;;;;-128.00;-1.00;-1.00;18480;335;7507172;-35
2023/04/19 01:12:22;;;;;;;17.30;10.60;;;;;;;-128.00;-1.00;-1.00;18864;294;7504671;-31
2023/04/19 01:14:49;;;;;;;18.50;12.40;;;;;;;-128.00;-1.00;-1.00;18888;294;7504699;-34
2023/04/19 01:17:15;;;;;;;21.50;13.60;;;;;;;-128.00;-1.00;-1.00;18887;294;7504617;-35
2023/04/19 01:19:41;;;;;;;19.80;12.60;;;;;;;-128.00;-1.00;-1.00;18868;339;7505377;-31
2023/04/19 01:22:08;;;;;;;23.50;13.90;;;;;;;-128.00;-1.00;-1.00;18876;294;7504388;-34
2023/04/19 01:24:34;;;;;;;21.60;13.50;;;;;;;-128.00;-1.00;-1.00;18480;322;7504177;-34
2023/04/19 01:27:01;;;;;;;16.70;11.00;;;;;;;-128.00;-1.00;-1.00;18469;302;7504847;-34
2023/04/19 01:29:27;;;;;;;23.30;13.00;;;;;;;-128.00;-1.00;-1.00;18473;294;7504400;-34
2023/04/19 01:31:52;;;;;;;22.70;12.40;;;;;;;-128.00;-1.00;-1.00;18463;319;7505320;-31
2023/04/19 01:34:19;;;;;;;23.70;13.90;;;;;;;-128.00;-1.00;-1.00;18890;295;7504568;-30
2023/04/19 01:36:45;;;;;;;24.10;13.10;;;;;;;-128.00;-1.00;-1.00;18467;347;7505192;-34
2023/04/19 01:39:10;;;;;;;24.30;14.80;;;;;;;-128.00;-1.00;-1.00;18466;294;7505331;-34
2023/04/19 01:41:36;;;;;;;22.20;11.80;;;;;;;-128.00;-1.00;-1.00;18507;295;7506081;-31
2023/04/19 01:44:02;;;;;;;21.80;14.20;;;;;;;-128.00;-1.00;-1.00;18455;295;7504664;-30
2023/04/19 01:46:28;;;;;;;25.20;14.00;;;;;;;-128.00;-1.00;-1.00;18507;283;7505642;-34
2023/04/19 01:48:53;;;;;;;24.50;14.70;;;;;;;-128.00;-1.00;-1.00;18457;335;7505830;-34
2023/04/19 01:51:20;;;;;;;30.60;15.60;;;;;;;-128.00;-1.00;-1.00;18889;294;7505758;-33
2023/04/19 01:53:52;;;;;;;17.10;12.10;;;;;;;-128.00;-1.00;-1.00;18468;288;7504559;-33
2023/04/19 01:56:18;;;;;;;16.70;11.70;;;;;;;-128.00;-1.00;-1.00;18477;295;7504268;-33
2023/04/19 01:58:44;;;;;;;26.70;14.10;;;;;;;-128.00;-1.00;-1.00;18500;298;7506493;-36
2023/04/19 02:01:13;;;;;;;23.00;13.40;;;;;;;-128.00;-1.00;-1.00;18475;294;7505855;-35
2023/04/19 02:03:39;;;;;;;27.10;15.50;;;;;;;-128.00;-1.00;-1.00;18452;294;7504848;-35
2023/04/19 02:06:05;;;;;;;21.70;12.80;;;;;;;-128.00;-1.00;-1.00;18462;294;7504861;-32
2023/04/19 02:08:31;;;;;;;17.00;11.70;;;;;;;-128.00;-1.00;-1.00;18451;299;7506047;-32
2023/04/19 02:10:56;;;;;;;20.70;11.00;;;;;;;-128.00;-1.00;-1.00;18490;294;7504249;-31
2023/04/19 02:13:22;;;;;;;21.60;13.60;;;;;;;-128.00;-1.00;-1.00;18898;294;7505304;-35
2023/04/19 02:15:49;;;;;;;22.10;15.00;;;;;;;-128.00;-1.00;-1.00;18879;307;7504456;-30
2023/04/19 02:18:16;;;;;;;20.80;12.20;;;;;;;-128.00;-1.00;-1.00;18890;296;7504394;-30
2023/04/19 02:20:42;;;;;;;21.60;12.10;;;;;;;-128.00;-1.00;-1.00;18505;298;7505387;-33
2023/04/19 02:23:08;;;;;;;18.30;13.20;;;;;;;-128.00;-1.00;-1.00;18489;338;7504914;-30
2023/04/19 02:25:34;;;;;;;23.10;12.60;;;;;;;-128.00;-1.00;-1.00;18897;298;7504430;-30
2023/04/19 02:28:00;;;;;;;25.00;12.40;;;;;;;-128.00;-1.00;-1.00;18858;294;7504946;-30
2023/04/19 02:30:26;;;;;;;25.20;13.50;;;;;;;-128.00;-1.00;-1.00;18875;294;7504613;-30
2023/04/19 02:32:53;;;;;;;21.60;12.40;;;;;;;-128.00;-1.00;-1.00;18906;294;7504941;-33
2023/04/19 02:35:19;;;;;;;18.20;12.10;;;;;;;-128.00;-1.00;-1.00;18464;294;7504286;-30
2023/04/19 02:37:45;;;;;;;21.80;13.80;;;;;;;-128.00;-1.00;-1.00;18476;339;7506057;-29
2023/04/19 02:40:11;;;;;;;27.30;15.50;;;;;;;-128.00;-1.00;-1.00;18904;294;7505222;-34
2023/04/19 02:42:37;;;;;;;23.10;14.80;;;;;;;-128.00;-1.00;-1.00;18880;295;7504986;-31
2023/04/19 02:45:04;;;;;;;22.40;14.80;;;;;;;-128.00;-1.00;-1.00;18893;294;7504826;-30
2023/04/19 02:47:30;;;;;;;25.80;14.30;;;;;;;-128.00;-1.00;-1.00;18476;294;7504621;-31
2023/04/19 02:49:56;;;;;;;25.60;14.00;;;;;;;-128.00;-1.00;-1.00;18487;294;7505904;-30
2023/04/19 02:52:22;;;;;;;22.80;12.30;;;;;;;-128.00;-1.00;-1.00;18519;294;7505146;-30
2023/04/19 02:54:47;;;;;;;15.70;11.10;;;;;;;-128.00;-1.00;-1.00;18494;294;7504825;-30
2023/04/19 02:57:13;;;;;;;19.10;12.00;;;;;;;-128.00;-1.00;-1.00;18455;296;7505770;-34
2023/04/19 02:59:39;;;;;;;26.50;13.00;;;;;;;-128.00;-1.00;-1.00;18468;310;7504797;-30
2023/04/19 03:02:05;;;;;;;19.40;12.40;;;;;;;-128.00;-1.00;-1.00;18878;295;7505378;-32
2023/04/19 03:04:31;;;;;;;18.60;11.80;;;;;;;-128.00;-1.00;-1.00;18864;294;7504610;-30
2023/04/19 03:06:57;;;;;;;18.70;12.60;;;;;;;-128.00;-1.00;-1.00;18887;294;7504666;-35
2023/04/19 03:09:24;;;;;;;22.20;11.90;;;;;;;-128.00;-1.00;-1.00;18885;335;7504279;-31
2023/04/19 03:11:50;;;;;;;16.50;10.40;;;;;;;-128.00;-1.00;-1.00;18895;347;7504251;-32
2023/04/19 03:14:16;;;;;;;17.30;10.20;;;;;;;-128.00;-1.00;-1.00;18884;295;7504420;-32
2023/04/19 03:16:42;;;;;;;20.90;11.20;;;;;;;-128.00;-1.00;-1.00;18904;294;7505268;-31
2023/04/19 03:19:09;;;;;;;15.70;9.50;;;;;;;-128.00;-1.00;-1.00;18876;294;7504931;-32
2023/04/19 03:21:35;;;;;;;17.40;9.70;;;;;;;-128.00;-1.00;-1.00;18889;295;7504257;-34
2023/04/19 03:24:01;;;;;;;22.20;10.30;;;;;;;-128.00;-1.00;-1.00;18864;294;7504704;-33
2023/04/19 03:26:27;;;;;;;18.60;10.40;;;;;;;-128.00;-1.00;-1.00;18881;339;7504943;-31
2023/04/19 03:28:54;;;;;;;14.10;8.80;;;;;;;-128.00;-1.00;-1.00;18878;296;7504479;-34
2023/04/19 03:31:21;;;;;;;17.90;8.50;;;;;;;-128.00;-1.00;-1.00;18883;294;7504456;-34
2023/04/19 03:33:46;;;;;;;13.00;8.20;;;;;;;-128.00;-1.00;-1.00;18491;307;7506003;-34
2023/04/19 03:36:13;;;;;;;17.90;9.30;;;;;;;-128.00;-1.00;-1.00;18878;347;7504345;-32
2023/04/19 03:38:39;;;;;;;15.80;10.00;;;;;;;-128.00;-1.00;-1.00;18854;294;7504203;-33
2023/04/19 03:41:22;;;;;;;15.90;9.60;;;;;;;-128.00;-1.00;-1.00;18464;294;7504958;-31
2023/04/19 03:43:47;;;;;;;;;;;;;;;-128.00;-1.00;-1.00;18472;294;7504606;-31
2023/04/19 03:46:14;;;;;;;11.80;8.50;;;;;;;-128.00;-1.00;-1.00;18880;288;7504151;-34
2023/04/19 03:48:40;;;;;;;15.70;10.30;;;;;;;-128.00;-1.00;-1.00;18892;339;7504648;-29
2023/04/19 03:51:06;;;;;;;18.10;9.40;;;;;;;-128.00;-1.00;-1.00;18860;294;7505423;-29
2023/04/19 03:53:32;;;;;;;17.90;10.60;;;;;;;-128.00;-1.00;-1.00;18874;295;7504600;-30
2023/04/19 03:55:58;;;;;;;18.10;9.30;;;;;;;-128.00;-1.00;-1.00;18902;294;7504471;-33
2023/04/19 03:58:25;;;;;;;19.00;11.60;;;;;;;-128.00;-1.00;-1.00;18910;294;7505476;-34
2023/04/19 04:00:52;;;;;;;15.80;10.40;;;;;;;-128.00;-1.00;-1.00;18493;294;7505359;-31
2023/04/19 04:03:18;;;;;;;19.50;9.50;;;;;;;-128.00;-1.00;-1.00;18462;294;7504308;-30
2023/04/19 04:05:44;;;;;;;17.00;11.30;;;;;;;-128.00;-1.00;-1.00;18487;295;7504940;-30
2023/04/19 04:08:10;;;;;;;10.90;8.70;;;;;;;-128.00;-1.00;-1.00;18460;295;7504927;-33
2023/04/19 04:10:36;;;;;;;24.40;10.60;;;;;;;-128.00;-1.00;-1.00;18491;335;7504689;-33
2023/04/19 04:13:01;;;;;;;13.90;8.20;;;;;;;-128.00;-1.00;-1.00;18472;306;7506448;-29
2023/04/19 04:15:28;;;;;;;13.30;8.10;;;;;;;-128.00;-1.00;-1.00;18889;288;7505573;-29
2023/04/19 04:17:54;;;;;;;20.00;9.70;;;;;;;-128.00;-1.00;-1.00;18871;295;7504246;-31
2023/04/19 04:20:20;;;;;;;16.20;8.40;;;;;;;-128.00;-1.00;-1.00;18883;306;7503986;-31
2023/04/19 04:22:46;;;;;;;20.10;9.50;;;;;;;-128.00;-1.00;-1.00;18890;346;7504269;-34
2023/04/19 04:25:14;;;;;;;15.90;9.80;;;;;;;-128.00;-1.00;-1.00;18868;318;7504952;-34
2023/04/19 04:27:42;;;;;;;15.80;7.10;;;;;;;-128.00;-1.00;-1.00;18466;294;7505816;-33
2023/04/19 04:30:09;;;;;;;10.30;7.30;;;;;;;-128.00;-1.00;-1.00;18475;294;7504621;-33
2023/04/19 04:32:34;;;;;;;21.90;9.60;;;;;;;-128.00;-1.00;-1.00;18495;347;7504879;-33
2023/04/19 04:35:04;;;;;;;24.70;9.60;;;;;;;-128.00;-1.00;-1.00;18478;294;7504163;-35
2023/04/19 05:15:16;;;;;;;9.00;6.30;;;;;;;-101.53;19.20;19920.03;19570;298;8044926;-29
2023/04/19 05:17:43;;;;;;;7.40;3.10;;;;;;;-128.00;-1.00;-1.00;18075;340;7504282;-33
2023/04/19 05:20:09;;;;;;;11.40;6.20;;;;;;;-128.00;-1.00;-1.00;18470;293;7504812;-33
2023/04/19 05:22:34;;;;;;;19.10;6.60;;;;;;;-128.00;-1.00;-1.00;18462;294;7505354;-32
2023/04/19 05:25:01;;;;;;;16.50;7.10;;;;;;;-128.00;-1.00;-1.00;18494;346;7505329;-34
2023/04/19 05:27:26;;;;;;;19.10;6.40;;;;;;;-128.00;-1.00;-1.00;18510;307;7504642;-31
2023/04/19 05:29:52;;;;;;;8.80;5.50;;;;;;;-128.00;-1.00;-1.00;18899;306;7504436;-34
2023/04/19 05:32:19;;;;;;;14.70;5.60;;;;;;;-128.00;-1.00;-1.00;18882;294;7506093;-34
2023/04/19 05:34:45;;;;;;;11.00;5.70;;;;;;;-128.00;-1.00;-1.00;18467;293;7505008;-30
2023/04/19 05:37:11;;;;;;;9.10;6.20;;;;;;;-128.00;-1.00;-1.00;18888;305;7504094;-30
2023/04/19 05:39:37;;;;;;;7.40;5.90;;;;;;;-128.00;-1.00;-1.00;18897;295;7504127;-30
2023/04/19 05:42:03;;;;;;;7.90;5.20;;;;;;;-128.00;-1.00;-1.00;18880;293;7505135;-29
2023/04/19 05:44:29;;;;;;;12.80;7.00;;;;;;;-128.00;-1.00;-1.00;18903;294;7505149;-34
2023/04/19 05:46:56;;;;;;;10.40;5.30;;;;;;;-128.00;-1.00;-1.00;18900;346;7504642;-31
2023/04/19 05:49:22;;;;;;;8.80;5.30;;;;;;;-128.00;-1.00;-1.00;18927;295;7504566;-34
2023/04/19 05:51:48;;;;;;;10.90;4.00;;;;;;;-128.00;-1.00;-1.00;18518;294;7505002;-34
2023/04/19 05:54:14;;;;;;;8.60;4.40;;;;;;;-128.00;-1.00;-1.00;18518;294;7506251;-31
2023/04/19 05:56:40;;;;;;;7.20;5.70;;;;;;;-128.00;-1.00;-1.00;18490;295;7504334;-33
2023/04/19 05:59:07;;;;;;;10.50;5.40;;;;;;;-128.00;-1.00;-1.00;18885;295;7505076;-36
2023/04/19 06:01:33;;;;;;;13.10;6.20;;;;;;;-128.00;-1.00;-1.00;18507;294;7504445;-35
2023/04/19 06:04:00;;;;;;;9.40;5.30;;;;;;;-128.00;-1.00;-1.00;18501;294;7504832;-37
2023/04/19 06:06:26;;;;;;;7.60;4.90;;;;;;;-128.00;-1.00;-1.00;18499;294;7504479;-32
2023/04/19 06:08:52;;;;;;;7.20;5.40;;;;;;;-128.00;-1.00;-1.00;18498;294;7504353;-33
2023/04/19 06:11:17;;;;;;;11.60;7.10;;;;;;;-128.00;-1.00;-1.00;18497;306;7505067;-35
2023/04/19 06:13:44;;;;;;;13.10;7.90;;;;;;;-128.00;-1.00;-1.00;18875;295;7505073;-36
2023/04/19 06:16:10;;;;;;;9.80;6.70;;;;;;;-128.00;-1.00;-1.00;18486;294;7504985;-33
2023/04/19 06:18:36;;;;;;;16.30;8.40;;;;;;;-128.00;-1.00;-1.00;18883;294;7504757;-34
2023/04/19 06:21:02;;;;;;;10.90;7.30;;;;;;;-128.00;-1.00;-1.00;18882;294;7505197;-33
2023/04/19 06:23:28;;;;;;;12.40;8.90;;;;;;;-128.00;-1.00;-1.00;18498;294;7505359;-32
2023/04/19 06:25:54;;;;;;;11.60;7.50;;;;;;;-128.00;-1.00;-1.00;18483;294;7505869;-36
2023/04/19 06:28:20;;;;;;;14.60;8.80;;;;;;;-128.00;-1.00;-1.00;18886;342;7505002;-33
2023/04/19 06:30:46;;;;;;;7.70;5.60;;;;;;;-128.00;-1.00;-1.00;18475;298;7504900;-36
2023/04/19 06:49:16;;;;;;;8.70;7.20;;;;;;;-101.71;19.20;19925.27;19557;296;8044989;-37
2023/04/19 06:51:42;;;;;;;7.10;5.40;;;;;;;-128.00;-1.00;-1.00;18432;297;7504907;-37
2023/04/19 06:54:08;;;;;;;8.90;6.40;;;;;;;-128.00;-1.00;-1.00;18918;295;7506081;-33
2023/04/19 06:56:39;;;;;;;8.90;5.30;;;;;;;-128.00;-1.00;-1.00;18898;287;7504499;-35
2023/04/19 06:59:04;;;;;;;7.10;6.40;;;;;;;-128.00;-1.00;-1.00;18474;296;7504930;-33
2023/04/19 07:01:31;;;;;;;10.30;6.30;;;;;;;-128.00;-1.00;-1.00;18876;289;7504649;-36
2023/04/19 07:03:57;;;;;;;25.20;9.30;;;;;;;-128.00;-1.00;-1.00;18878;320;7506335;-33
2023/04/19 07:06:23;;;;;;;18.90;10.80;;;;;;;-128.00;-1.00;-1.00;18869;295;7504486;-35
2023/04/19 07:08:49;;;;;;;21.90;9.20;;;;;;;-128.00;-1.00;-1.00;18507;287;7505250;-33
2023/04/19 07:11:15;;;;;;;17.00;10.20;;;;;;;-128.00;-1.00;-1.00;18883;347;7505050;-36
2023/04/19 07:13:41;;;;;;;15.70;9.90;;;;;;;-128.00;-1.00;-1.00;18912;347;7505071;-35
2023/04/19 07:16:07;;;;;;;19.40;10.90;;;;;;;-128.00;-1.00;-1.00;18890;295;7505299;-35
2023/04/19 07:18:33;;;;;;;16.20;9.20;;;;;;;-128.00;-1.00;-1.00;18503;288;7504987;-36
2023/04/19 07:21:00;;;;;;;13.50;9.10;;;;;;;-128.00;-1.00;-1.00;18493;347;7504328;-32
2023/04/19 07:23:26;;;;;;;14.80;9.20;;;;;;;-128.00;-1.00;-1.00;18880;287;7504884;-36
2023/04/19 07:25:52;;;;;;;14.50;11.30;;;;;;;-128.00;-1.00;-1.00;18896;287;7504598;-36
2023/04/19 07:28:18;;;;;;;17.40;9.20;;;;;;;-128.00;-1.00;-1.00;18897;288;7504120;-37
2023/04/19 07:30:45;;;;;;;15.60;10.30;;;;;;;-128.00;-1.00;-1.00;18886;288;7505137;-34
2023/04/19 07:33:11;;;;;;;18.70;12.10;;;;;;;-128.00;-1.00;-1.00;18873;287;7504843;-36
2023/04/19 07:35:40;;;;;;;17.80;11.20;;;;;;;-128.00;-1.00;-1.00;18889;295;7504303;-33
2023/04/19 07:38:06;;;;;;;16.70;10.50;;;;;;;-128.00;-1.00;-1.00;18484;308;7506342;-38
2023/04/19 07:40:31;;;;;;;12.90;8.40;;;;;;;-128.00;-1.00;-1.00;18467;341;7504443;-35
2023/04/19 07:42:57;;;;;;;18.60;10.60;;;;;;;-128.00;-1.00;-1.00;18467;296;7504503;-37
2023/04/19 07:45:23;;;;;;;7.40;5.40;;;;;;;-128.00;-1.00;-1.00;18452;288;7504516;-33
2023/04/19 07:47:49;;;;;;;18.90;9.80;;;;;;;-128.00;-1.00;-1.00;18899;295;7505142;-33
2023/04/19 07:50:16;;;;;;;15.50;9.60;;;;;;;-128.00;-1.00;-1.00;18866;316;7504143;-34
2023/04/19 07:52:41;;;;;;;17.10;9.90;;;;;;;-128.00;-1.00;-1.00;18496;289;7505976;-33
2023/04/19 07:55:08;;;;;;;16.00;11.80;;;;;;;-128.00;-1.00;-1.00;18864;297;7504426;-32
2023/04/19 07:57:34;;;;;;;18.10;9.40;;;;;;;-128.00;-1.00;-1.00;18470;297;7504655;-33
2023/04/19 08:00:01;;;;;;;14.30;8.40;;;;;;;-128.00;-1.00;-1.00;18488;297;7505197;-36
2023/04/19 08:02:26;;;;;;;11.30;8.70;;;;;;;-128.00;-1.00;-1.00;18485;289;7504509;-36
2023/04/19 08:04:53;;;;;;;18.90;9.90;;;;;;;-128.00;-1.00;-1.00;18472;289;7504736;-33
2023/04/19 08:07:19;;;;;;;13.40;9.80;;;;;;;-128.00;-1.00;-1.00;18473;299;7504276;-33
2023/04/19 08:09:45;;;;;;;12.60;9.00;;;;;;;-128.00;-1.00;-1.00;18473;285;7505034;-33
2023/04/19 08:12:11;;;;;;;18.50;9.30;;;;;;;-128.00;-1.00;-1.00;18850;299;7504834;-37
2023/04/19 08:14:39;;;;;;;12.00;8.10;;;;;;;-128.00;-1.00;-1.00;18883;285;7504794;-33
2023/04/19 08:17:05;;;;;;;8.60;7.00;;;;;;;-128.00;-1.00;-1.00;18475;297;7506213;-36
2023/04/19 08:19:31;;;;;;;9.90;8.90;;;;;;;-128.00;-1.00;-1.00;18478;285;7506266;-34
2023/04/19 08:21:57;;;;;;;14.00;9.40;;;;;;;-128.00;-1.00;-1.00;18898;308;7504876;-37
2023/04/19 08:24:23;;;;;;;15.40;10.50;;;;;;;-128.00;-1.00;-1.00;18881;296;7504711;-33
2023/04/19 08:26:53;;;;;;;17.80;11.80;;;;;;;-128.00;-1.00;-1.00;18866;297;7504948;-36
2023/04/19 08:29:20;;;;;;;12.70;8.10;;;;;;;-128.00;-1.00;-1.00;18472;287;7504338;-36
2023/04/19 08:31:46;;;;;;;16.30;11.60;;;;;;;-128.00;-1.00;-1.00;18440;299;7504225;-34
2023/04/19 08:34:12;;;;;;;15.60;7.70;;;;;;;-128.00;-1.00;-1.00;18448;348;7505443;-36
2023/04/19 08:36:38;;;;;;;13.80;8.50;;;;;;;-128.00;-1.00;-1.00;18467;285;7504429;-37
2023/04/19 08:39:04;;;;;;;24.30;13.30;;;;;;;-128.00;-1.00;-1.00;18882;297;7506196;-36
2023/04/19 08:41:30;;;;;;;18.30;9.30;;;;;;;-128.00;-1.00;-1.00;18456;348;7505050;-35
2023/04/19 08:43:56;;;;;;;20.00;10.30;;;;;;;-128.00;-1.00;-1.00;18458;348;7504665;-36
2023/04/19 08:46:23;;;;;;;21.00;10.40;;;;;;;-128.00;-1.00;-1.00;18461;296;7506493;-33
2023/04/19 08:48:50;;;;;;;17.00;10.30;;;;;;;-128.00;-1.00;-1.00;18454;337;7505005;-33
2023/04/19 08:51:16;;;;;;;29.20;11.90;;;;;;;-128.00;-1.00;-1.00;18460;297;7505963;-32
2023/04/19 08:53:43;;;;;;;21.00;11.20;;;;;;;-128.00;-1.00;-1.00;18456;297;7504385;-35
2023/04/19 08:56:09;;;;;;;14.80;7.90;;;;;;;-128.00;-1.00;-1.00;18459;285;7504509;-35
2023/04/19 08:58:35;;;;;;;27.00;11.00;;;;;;;-128.00;-1.00;-1.00;18461;296;7505591;-37
2023/04/19 09:01:03;;;;;;;23.60;13.20;;;;;;;-128.00;-1.00;-1.00;18466;289;7506189;-36
2023/04/19 09:03:29;;;;;;;18.30;12.00;;;;;;;-128.00;-1.00;-1.00;18473;297;7505548;-34
2023/04/19 09:05:55;;;;;;;25.70;12.10;;;;;;;-128.00;-1.00;-1.00;18474;285;7506058;-33
2023/04/19 09:08:29;;;;;;;13.40;9.20;;;;;;;-128.00;-1.00;-1.00;18462;297;7506536;-36
2023/04/19 09:10:57;;;;;;;22.80;12.10;;;;;;;-128.00;-1.00;-1.00;18471;297;7504698;-37
2023/04/19 09:13:23;;;;;;;18.40;11.40;;;;;;;-128.00;-1.00;-1.00;18466;296;7504265;-34
2023/04/19 09:15:49;;;;;;;12.80;7.70;;;;;;;-128.00;-1.00;-1.00;18484;285;7504868;-35
2023/04/19 09:18:15;;;;;;;16.60;10.40;;;;;;;-128.00;-1.00;-1.00;18479;289;7504274;-34
2023/04/19 09:20:43;;;;;;;17.40;9.70;;;;;;;-128.00;-1.00;-1.00;18456;298;7504882;-34
2023/04/19 09:23:11;;;;;;;15.80;11.70;;;;;;;-128.00;-1.00;-1.00;18449;305;7505001;-37
2023/04/19 09:25:38;;;;;;;19.60;12.80;;;;;;;-128.00;-1.00;-1.00;18459;348;7505132;-37
2023/04/19 09:28:07;;;;;;;21.90;10.40;;;;;;;-128.00;-1.00;-1.00;18480;306;7504732;-34
2023/04/19 09:30:33;;;;;;;15.00;10.40;;;;;;;-128.00;-1.00;-1.00;18445;323;7504978;-37
2023/04/19 09:32:59;;;;;;;13.20;9.90;;;;;;;-128.00;-1.00;-1.00;18477;297;7504882;-36
2023/04/19 09:35:46;;;;;;;21.00;14.00;;;;;;;-128.00;-1.00;-1.00;18463;296;7506598;-37
2023/04/19 09:38:12;;;;;;;18.80;12.20;;;;;;;-128.00;-1.00;-1.00;18458;289;7504383;-33
2023/04/19 09:40:38;;;;;;;18.80;11.70;;;;;;;-128.00;-1.00;-1.00;18459;289;7506011;-33
2023/04/19 09:43:04;;;;;;;14.90;11.40;;;;;;;-128.00;-1.00;-1.00;18469;297;7505650;-37
2023/04/19 09:45:43;;;;;;;26.50;15.70;;;;;;;-128.00;-1.00;-1.00;18859;297;7506007;-34
2023/04/19 09:48:08;;;;;;;19.50;11.30;;;;;;;-128.00;-1.00;-1.00;18488;297;7504708;-34
2023/04/19 09:50:35;;;;;;;11.80;9.60;;;;;;;-128.00;-1.00;-1.00;18452;297;7507386;-36
2023/04/19 09:53:01;;;;;;;19.00;13.10;;;;;;;-128.00;-1.00;-1.00;18485;285;7504191;-39
2023/04/19 09:55:27;;;;;;;15.60;12.20;;;;;;;-128.00;-1.00;-1.00;18468;297;7506219;-34
2023/04/19 09:57:53;;;;;;;22.90;13.00;;;;;;;-128.00;-1.00;-1.00;18884;289;7504776;-33
2023/04/19 10:00:21;;;;;;;20.20;13.50;;;;;;;-128.00;-1.00;-1.00;18845;289;7504933;-36
2023/04/19 10:02:54;;;;;;;17.80;13.20;;;;;;;-128.00;-1.00;-1.00;18464;297;7504749;-33
2023/04/19 10:05:21;;;;;;;17.30;12.40;;;;;;;-128.00;-1.00;-1.00;18459;285;7505301;-34
2023/04/19 10:07:47;;;;;;;23.40;14.60;;;;;;;-128.00;-1.00;-1.00;18456;285;7506973;-34
2023/04/19 10:10:14;;;;;;;21.90;13.50;;;;;;;-128.00;-1.00;-1.00;18441;285;7504552;-35
2023/04/19 10:12:40;;;;;;;23.70;11.60;;;;;;;-128.00;-1.00;-1.00;18463;297;7504249;-36
2023/04/19 10:15:08;;;;;;;22.50;13.80;;;;;;;-128.00;-1.00;-1.00;18447;350;7504300;-33
2023/04/19 10:17:33;;;;;;;13.60;10.60;;;;;;;-128.00;-1.00;-1.00;18470;297;7504699;-33
2023/04/19 10:20:05;;;;;;;23.50;14.50;;;;;;;-128.00;-1.00;-1.00;18441;349;7505395;-36
2023/04/19 10:22:31;;;;;;;23.10;14.40;;;;;;;-128.00;-1.00;-1.00;18480;285;7504657;-35
2023/04/19 10:25:12;;;;;;;18.00;12.70;;;;;;;-128.00;-1.00;-1.00;18470;305;7504410;-36
2023/04/19 10:27:39;;;;;;;21.50;14.70;;;;;;;-128.00;-1.00;-1.00;18485;348;7505165;-36
2023/04/19 10:30:11;;;;;;;16.80;10.90;;;;;;;-128.00;-1.00;-1.00;18449;337;7504628;-35
2023/04/19 10:32:41;;;;;;;;;;;;;;;-128.00;-1.00;-1.00;18465;285;7504945;-39
2023/04/19 10:35:08;;;;;;;17.60;13.10;;;;;;;-128.00;-1.00;-1.00;18457;297;7505043;-37
2023/04/19 10:37:33;;;;;;;15.70;12.30;;;;;;;-128.00;-1.00;-1.00;18470;297;7506233;-34
2023/04/19 10:40:00;;;;;;;25.40;17.20;;;;;;;-128.00;-1.00;-1.00;18859;297;7504345;-33
2023/04/19 10:42:50;;;;;;;23.40;16.60;;;;;;;-128.00;-1.00;-1.00;18861;296;7504355;-33
2023/04/19 10:45:31;;;;;;;22.20;13.10;;;;;;;-128.00;-1.00;-1.00;18456;308;7506553;-36
2023/04/19 10:47:56;;;;;;;21.70;13.10;;;;;;;-128.00;-1.00;-1.00;18483;285;7505282;-36
2023/04/19 10:50:22;;;;;;;22.00;12.20;;;;;;;-128.00;-1.00;-1.00;18449;296;7504862;-38
2023/04/19 10:52:48;;;;;;;20.60;14.00;;;;;;;-128.00;-1.00;-1.00;18459;298;7505720;-34
2023/04/19 10:55:15;;;;;;;21.50;13.70;;;;;;;-128.00;-1.00;-1.00;18873;341;7505905;-36
2023/04/19 10:58:05;;;;;;;29.60;14.50;;;;;;;-128.00;-1.00;-1.00;18479;296;7504698;-36
2023/04/19 11:00:32;;;;;;;23.40;15.50;;;;;;;-128.00;-1.00;-1.00;18450;296;7506178;-34
2023/04/19 11:02:59;;;;;;;29.80;15.50;;;;;;;-128.00;-1.00;-1.00;18462;297;7504308;-34
2023/04/19 11:05:25;;;;;;;34.10;17.10;;;;;;;-128.00;-1.00;-1.00;18430;296;7505780;-36
2023/04/19 11:48:13;;;;;;;36.50;20.70;;;;;;;-101.44;19.20;19912.92;19563;295;8045223;-37
2023/04/19 11:50:43;;;;;;;23.20;15.50;;;;;;;-128.00;-1.00;-1.00;18118;296;7504374;-35
2023/04/19 11:53:26;;;;;;;22.50;15.00;;;;;;;-128.00;-1.00;-1.00;18490;294;7506075;-36
2023/04/19 11:55:53;;;;;;;32.70;15.70;;;;;;;-128.00;-1.00;-1.00;18485;295;7505890;-36
2023/04/19 11:58:24;;;;;;;28.00;15.00;;;;;;;-128.00;-1.00;-1.00;18484;295;7504309;-36
2023/04/19 12:00:50;;;;;;;33.40;13.30;;;;;;;-128.00;-1.00;-1.00;18459;347;7506149;-35
2023/04/19 12:03:16;;;;;;;22.10;15.80;;;;;;;-128.00;-1.00;-1.00;18480;283;7504931;-35
2023/04/19 12:05:55;;;;;;;18.50;14.80;;;;;;;-128.00;-1.00;-1.00;18481;295;7505877;-33
2023/04/19 12:08:34;;;;;;;20.10;13.30;;;;;;;-128.00;-1.00;-1.00;18505;295;7504317;-33
2023/04/19 12:11:00;;;;;;;25.20;16.60;;;;;;;-128.00;-1.00;-1.00;18489;288;7505023;-37
2023/04/19 12:13:25;;;;;;;28.20;18.60;;;;;;;-128.00;-1.00;-1.00;18486;296;7504505;-34
2023/04/19 12:15:51;;;;;;;28.70;18.50;;;;;;;-128.00;-1.00;-1.00;18488;295;7504439;-36
2023/04/19 12:18:17;;;;;;;29.70;17.20;;;;;;;-128.00;-1.00;-1.00;18480;295;7504710;-33
2023/04/19 12:20:44;;;;;;;32.90;16.80;;;;;;;-128.00;-1.00;-1.00;18484;295;7506284;-36
2023/04/19 12:23:12;;;;;;;24.90;15.20;;;;;;;-128.00;-1.00;-1.00;18478;295;7506086;-36
2023/04/19 12:25:38;;;;;;;17.80;13.00;;;;;;;-128.00;-1.00;-1.00;18505;295;7504621;-36
2023/04/19 12:28:04;;;;;;;27.50;14.20;;;;;;;-128.00;-1.00;-1.00;18469;295;7505162;-36
2023/04/19 12:30:30;;;;;;;30.10;18.50;;;;;;;-128.00;-1.00;-1.00;18901;307;7504828;-33
2023/04/19 12:32:57;;;;;;;31.80;19.80;;;;;;;-128.00;-1.00;-1.00;18884;294;7504391;-33
2023/04/19 12:35:24;;;;;;;38.70;20.80;;;;;;;-128.00;-1.00;-1.00;18873;295;7504698;-33
2023/04/19 12:37:54;;;;;;;27.80;15.50;;;;;;;-128.00;-1.00;-1.00;18464;285;7506043;-33
2023/04/19 12:40:20;;;;;;;31.60;19.50;;;;;;;-128.00;-1.00;-1.00;18456;322;7504259;-37
2023/04/19 12:42:46;;;;;;;27.70;16.80;;;;;;;-128.00;-1.00;-1.00;18451;294;7506262;-36
2023/04/19 12:45:11;;;;;;;23.10;15.50;;;;;;;-128.00;-1.00;-1.00;18489;294;7504563;-33
2023/04/19 12:47:38;;;;;;;22.70;14.90;;;;;;;-128.00;-1.00;-1.00;18463;307;7504211;-37
2023/04/19 12:50:04;;;;;;;24.20;17.60;;;;;;;-128.00;-1.00;-1.00;18496;330;7504538;-33
2023/04/19 12:52:30;;;;;;;20.50;15.30;;;;;;;-128.00;-1.00;-1.00;18484;299;7504737;-34
2023/04/19 12:54:56;;;;;;;28.10;17.50;;;;;;;-128.00;-1.00;-1.00;18893;311;7505147;-35